sensor_id;sensor_type;location;lat;lon;timestamp;temperature;humidity
19898;DHT22;10111;50.814;4.572;2022-07-05T00:02:04;15.30;99.90
19898;DHT22;10111;50.814;4.572;2022-07-05T00:04:30;15.20;99.90
19898;DHT22;10111;50.814;4.572;2022-07-05T00:06:55;15.30;99.90
19898;DHT22;10111;50.814;4.572;2022-07-05T00:09:39;15.20;99.90
19898;DHT22;10111;50.814;4.572;2022-07-05T00:12:05;15.20;99.90
19898;DHT22;10111;50.814;4.572;2022-07-05T00:14:31;15.10;99.90
19898;DHT22;10111;50.814;4.572;2022-07-05T00:16:56;15.10;99.90
19898;DHT22;10111;50.814;4.572;2022-07-05T00:19:22;15.10;99.90
19898;DHT22;10111;50.814;4.572;2022-07-05T00:21:48;15.10;99.90
19898;DHT22;10111;50.814;4.572;2022-07-05T00:24:13;15.10;99.90
19898;DHT22;10111;50.814;4.572;2022-07-05T00:26:39;15.20;99.90
19898;DHT22;10111;50.814;4.572;2022-07-05T00:29:05;15.10;99.90
19898;DHT22;10111;50.814;4.572;2022-07-05T00:31:30;15.00;99.90
19898;DHT22;10111;50.814;4.572;2022-07-05T00:33:56;15.00;99.90
19898;DHT22;10111;50.814;4.572;2022-07-05T00:36:21;15.00;99.90
19898;DHT22;10111;50.814;4.572;2022-07-05T00:38:47;14.90;99.90
19898;DHT22;10111;50.814;4.572;2022-07-05T00:41:13;14.90;99.90
19898;DHT22;10111;50.814;4.572;2022-07-05T00:43:52;14.80;99.90
19898;DHT22;10111;50.814;4.572;2022-07-05T00:46:17;14.60;99.90
19898;DHT22;10111;50.814;4.572;2022-07-05T00:48:43;14.70;99.90
19898;DHT22;10111;50.814;4.572;2022-07-05T00:51:10;14.60;99.90
19898;DHT22;10111;50.814;4.572;2022-07-05T00:53:36;14.60;99.90
19898;DHT22;10111;50.814;4.572;2022-07-05T00:56:01;14.60;99.90
19898;DHT22;10111;50.814;4.572;2022-07-05T00:58:27;14.50;99.90
19898;DHT22;10111;50.814;4.572;2022-07-05T01:00:54;14.50;99.90
19898;DHT22;10111;50.814;4.572;2022-07-05T01:03:19;14.40;99.90
19898;DHT22;10111;50.814;4.572;2022-07-05T01:05:45;14.40;99.90
19898;DHT22;10111;50.814;4.572;2022-07-05T01:08:11;14.40;99.90
19898;DHT22;10111;50.814;4.572;2022-07-05T01:10:39;14.50;99.90
19898;DHT22;10111;50.814;4.572;2022-07-05T01:13:06;14.50;99.90
19898;DHT22;10111;50.814;4.572;2022-07-05T01:15:32;14.50;99.90
19898;DHT22;10111;50.814;4.572;2022-07-05T01:17:58;14.40;99.90
19898;DHT22;10111;50.814;4.572;2022-07-05T01:20:25;14.40;99.90
19898;DHT22;10111;50.814;4.572;2022-07-05T01:25:24;14.30;99.90
19898;DHT22;10111;50.814;4.572;2022-07-05T01:27:51;14.20;99.90
19898;DHT22;10111;50.814;4.572;2022-07-05T01:30:17;14.20;99.90
19898;DHT22;10111;50.814;4.572;2022-07-05T01:32:43;14.20;99.90
19898;DHT22;10111;50.814;4.572;2022-07-05T01:35:10;14.10;99.90
19898;DHT22;10111;50.814;4.572;2022-07-05T01:37:36;14.00;99.90
19898;DHT22;10111;50.814;4.572;2022-07-05T01:40:03;14.00;99.90
19898;DHT22;10111;50.814;4.572;2022-07-05T01:42:30;13.90;99.90
19898;DHT22;10111;50.814;4.572;2022-07-05T01:44:55;13.80;99.90
19898;DHT22;10111;50.814;4.572;2022-07-05T01:47:21;13.80;99.90
19898;DHT22;10111;50.814;4.572;2022-07-05T01:49:52;13.80;99.90
19898;DHT22;10111;50.814;4.572;2022-07-05T01:52:21;13.80;99.90
19898;DHT22;10111;50.814;4.572;2022-07-05T01:54:47;13.80;99.90
19898;DHT22;10111;50.814;4.572;2022-07-05T01:57:13;13.90;99.90
19898;DHT22;10111;50.814;4.572;2022-07-05T01:59:39;13.80;99.90
19898;DHT22;10111;50.814;4.572;2022-07-05T02:02:07;13.80;99.90
19898;DHT22;10111;50.814;4.572;2022-07-05T02:04:34;13.80;99.90
19898;DHT22;10111;50.814;4.572;2022-07-05T02:07:04;13.70;99.90
19898;DHT22;10111;50.814;4.572;2022-07-05T02:09:30;13.80;99.90
19898;DHT22;10111;50.814;4.572;2022-07-05T02:11:56;13.70;99.90
19898;DHT22;10111;50.814;4.572;2022-07-05T02:14:22;13.90;99.90
19898;DHT22;10111;50.814;4.572;2022-07-05T02:16:48;13.70;99.90
19898;DHT22;10111;50.814;4.572;2022-07-05T02:19:13;13.70;99.90
19898;DHT22;10111;50.814;4.572;2022-07-05T02:21:39;13.70;99.90
19898;DHT22;10111;50.814;4.572;2022-07-05T02:24:06;13.70;99.90
19898;DHT22;10111;50.814;4.572;2022-07-05T02:26:32;13.60;99.90
19898;DHT22;10111;50.814;4.572;2022-07-05T02:28:58;13.60;99.90
19898;DHT22;10111;50.814;4.572;2022-07-05T02:31:24;13.70;99.90
19898;DHT22;10111;50.814;4.572;2022-07-05T02:33:50;13.60;99.90
19898;DHT22;10111;50.814;4.572;2022-07-05T02:36:17;13.50;99.90
19898;DHT22;10111;50.814;4.572;2022-07-05T02:38:43;13.70;99.90
19898;DHT22;10111;50.814;4.572;2022-07-05T02:41:10;13.50;99.90
19898;DHT22;10111;50.814;4.572;2022-07-05T02:43:36;13.50;99.90
19898;DHT22;10111;50.814;4.572;2022-07-05T02:46:03;13.30;99.90
19898;DHT22;10111;50.814;4.572;2022-07-05T02:48:30;13.20;99.90
19898;DHT22;10111;50.814;4.572;2022-07-05T02:50:56;13.10;99.90
19898;DHT22;10111;50.814;4.572;2022-07-05T02:53:23;13.20;99.90
19898;DHT22;10111;50.814;4.572;2022-07-05T02:55:49;13.20;99.90
19898;DHT22;10111;50.814;4.572;2022-07-05T02:58:14;13.20;99.90
19898;DHT22;10111;50.814;4.572;2022-07-05T03:00:45;13.30;99.90
19898;DHT22;10111;50.814;4.572;2022-07-05T03:03:12;13.10;99.90
19898;DHT22;10111;50.814;4.572;2022-07-05T03:05:38;13.10;99.90
19898;DHT22;10111;50.814;4.572;2022-07-05T03:08:04;13.20;99.90
19898;DHT22;10111;50.814;4.572;2022-07-05T03:10:30;13.20;99.90
19898;DHT22;10111;50.814;4.572;2022-07-05T03:12:56;13.10;99.90
19898;DHT22;10111;50.814;4.572;2022-07-05T03:15:21;13.10;99.90
19898;DHT22;10111;50.814;4.572;2022-07-05T03:17:47;13.10;99.90
19898;DHT22;10111;50.814;4.572;2022-07-05T03:20:13;13.20;99.90
19898;DHT22;10111;50.814;4.572;2022-07-05T03:22:38;13.10;99.90
19898;DHT22;10111;50.814;4.572;2022-07-05T03:25:05;13.30;99.90
19898;DHT22;10111;50.814;4.572;2022-07-05T03:27:31;13.10;99.90
19898;DHT22;10111;50.814;4.572;2022-07-05T03:29:57;13.10;99.90
19898;DHT22;10111;50.814;4.572;2022-07-05T03:32:22;13.10;99.90
19898;DHT22;10111;50.814;4.572;2022-07-05T03:34:48;13.00;99.90
19898;DHT22;10111;50.814;4.572;2022-07-05T03:37:14;13.10;99.90
19898;DHT22;10111;50.814;4.572;2022-07-05T03:39:39;13.00;99.90
19898;DHT22;10111;50.814;4.572;2022-07-05T03:42:05;13.00;99.90
19898;DHT22;10111;50.814;4.572;2022-07-05T03:44:31;12.90;99.90
19898;DHT22;10111;50.814;4.572;2022-07-05T03:46:58;13.00;99.90
19898;DHT22;10111;50.814;4.572;2022-07-05T03:49:25;13.00;99.90
19898;DHT22;10111;50.814;4.572;2022-07-05T03:51:50;13.00;99.90
19898;DHT22;10111;50.814;4.572;2022-07-05T03:54:16;13.00;99.90
19898;DHT22;10111;50.814;4.572;2022-07-05T03:56:42;13.00;99.90
19898;DHT22;10111;50.814;4.572;2022-07-05T03:59:07;12.90;99.90
19898;DHT22;10111;50.814;4.572;2022-07-05T04:01:33;13.00;99.90
19898;DHT22;10111;50.814;4.572;2022-07-05T04:03:59;12.90;99.90
19898;DHT22;10111;50.814;4.572;2022-07-05T04:06:24;13.00;99.90
19898;DHT22;10111;50.814;4.572;2022-07-05T04:08:50;13.00;99.90
19898;DHT22;10111;50.814;4.572;2022-07-05T04:11:16;13.20;99.90
19898;DHT22;10111;50.814;4.572;2022-07-05T04:13:42;13.00;99.90
19898;DHT22;10111;50.814;4.572;2022-07-05T04:16:08;13.00;99.90
19898;DHT22;10111;50.814;4.572;2022-07-05T04:18:35;13.00;99.90
19898;DHT22;10111;50.814;4.572;2022-07-05T04:21:01;12.90;99.90
19898;DHT22;10111;50.814;4.572;2022-07-05T04:23:27;12.90;99.90
19898;DHT22;10111;50.814;4.572;2022-07-05T04:25:53;12.90;99.90
19898;DHT22;10111;50.814;4.572;2022-07-05T04:28:19;13.00;99.90
19898;DHT22;10111;50.814;4.572;2022-07-05T04:30:45;13.10;99.90
19898;DHT22;10111;50.814;4.572;2022-07-05T04:33:10;13.30;99.90
19898;DHT22;10111;50.814;4.572;2022-07-05T04:35:36;13.20;99.90
19898;DHT22;10111;50.814;4.572;2022-07-05T04:38:01;13.30;99.90
19898;DHT22;10111;50.814;4.572;2022-07-05T04:40:27;13.30;99.90
19898;DHT22;10111;50.814;4.572;2022-07-05T04:42:53;13.50;99.90
19898;DHT22;10111;50.814;4.572;2022-07-05T04:45:18;13.50;99.90
19898;DHT22;10111;50.814;4.572;2022-07-05T04:47:44;13.50;99.90
19898;DHT22;10111;50.814;4.572;2022-07-05T04:50:10;13.50;99.90
19898;DHT22;10111;50.814;4.572;2022-07-05T04:52:35;13.60;99.90
19898;DHT22;10111;50.814;4.572;2022-07-05T04:55:02;13.70;99.90
19898;DHT22;10111;50.814;4.572;2022-07-05T04:57:35;13.70;99.90
19898;DHT22;10111;50.814;4.572;2022-07-05T05:00:01;13.80;99.90
19898;DHT22;10111;50.814;4.572;2022-07-05T05:02:26;13.90;99.90
19898;DHT22;10111;50.814;4.572;2022-07-05T05:04:52;14.10;99.90
19898;DHT22;10111;50.814;4.572;2022-07-05T05:07:17;14.20;99.90
19898;DHT22;10111;50.814;4.572;2022-07-05T05:09:43;14.40;99.90
19898;DHT22;10111;50.814;4.572;2022-07-05T05:12:09;14.60;99.90
19898;DHT22;10111;50.814;4.572;2022-07-05T05:14:34;14.60;99.90
19898;DHT22;10111;50.814;4.572;2022-07-05T05:17:00;14.70;99.90
19898;DHT22;10111;50.814;4.572;2022-07-05T05:19:26;14.90;99.90
19898;DHT22;10111;50.814;4.572;2022-07-05T05:21:51;15.00;99.90
19898;DHT22;10111;50.814;4.572;2022-07-05T05:24:17;15.10;99.90
19898;DHT22;10111;50.814;4.572;2022-07-05T05:26:43;15.30;99.90
19898;DHT22;10111;50.814;4.572;2022-07-05T05:29:08;15.30;99.90
19898;DHT22;10111;50.814;4.572;2022-07-05T05:31:34;15.50;99.90
19898;DHT22;10111;50.814;4.572;2022-07-05T05:33:59;15.50;99.90
19898;DHT22;10111;50.814;4.572;2022-07-05T05:36:25;15.40;99.90
19898;DHT22;10111;50.814;4.572;2022-07-05T05:38:51;15.60;99.90
19898;DHT22;10111;50.814;4.572;2022-07-05T05:41:16;15.80;99.90
19898;DHT22;10111;50.814;4.572;2022-07-05T05:43:42;15.90;99.90
19898;DHT22;10111;50.814;4.572;2022-07-05T05:46:08;16.10;99.90
19898;DHT22;10111;50.814;4.572;2022-07-05T05:48:33;16.20;99.90
19898;DHT22;10111;50.814;4.572;2022-07-05T05:50:59;16.30;99.90
19898;DHT22;10111;50.814;4.572;2022-07-05T05:53:26;16.60;99.90
19898;DHT22;10111;50.814;4.572;2022-07-05T05:55:52;16.80;99.90
19898;DHT22;10111;50.814;4.572;2022-07-05T05:58:22;17.10;99.90
19898;DHT22;10111;50.814;4.572;2022-07-05T06:00:49;17.40;99.90
19898;DHT22;10111;50.814;4.572;2022-07-05T06:03:24;17.70;99.90
19898;DHT22;10111;50.814;4.572;2022-07-05T06:05:51;17.80;99.90
19898;DHT22;10111;50.814;4.572;2022-07-05T06:08:17;18.00;99.90
19898;DHT22;10111;50.814;4.572;2022-07-05T06:10:42;18.00;99.90
19898;DHT22;10111;50.814;4.572;2022-07-05T06:13:13;18.20;99.90
19898;DHT22;10111;50.814;4.572;2022-07-05T06:15:40;18.30;99.90
19898;DHT22;10111;50.814;4.572;2022-07-05T06:18:10;18.50;99.90
19898;DHT22;10111;50.814;4.572;2022-07-05T06:20:38;18.70;99.90
19898;DHT22;10111;50.814;4.572;2022-07-05T06:23:05;18.90;99.90
19898;DHT22;10111;50.814;4.572;2022-07-05T06:25:32;19.20;99.90
19898;DHT22;10111;50.814;4.572;2022-07-05T06:28:06;19.50;99.90
19898;DHT22;10111;50.814;4.572;2022-07-05T06:30:34;19.80;99.90
19898;DHT22;10111;50.814;4.572;2022-07-05T06:33:00;20.10;99.90
19898;DHT22;10111;50.814;4.572;2022-07-05T06:35:27;20.30;99.90
19898;DHT22;10111;50.814;4.572;2022-07-05T06:38:03;20.70;99.90
19898;DHT22;10111;50.814;4.572;2022-07-05T06:40:32;21.00;99.90
19898;DHT22;10111;50.814;4.572;2022-07-05T06:43:00;21.20;99.90
19898;DHT22;10111;50.814;4.572;2022-07-05T06:45:26;21.50;99.90
19898;DHT22;10111;50.814;4.572;2022-07-05T06:47:56;21.40;99.90
19898;DHT22;10111;50.814;4.572;2022-07-05T06:50:21;21.40;99.90
19898;DHT22;10111;50.814;4.572;2022-07-05T06:52:47;21.30;99.90
19898;DHT22;10111;50.814;4.572;2022-07-05T06:55:13;21.50;99.90
19898;DHT22;10111;50.814;4.572;2022-07-05T06:57:38;21.40;99.90
19898;DHT22;10111;50.814;4.572;2022-07-05T07:00:05;21.40;99.90
19898;DHT22;10111;50.814;4.572;2022-07-05T07:02:30;21.50;99.90
19898;DHT22;10111;50.814;4.572;2022-07-05T07:04:56;21.40;99.90
19898;DHT22;10111;50.814;4.572;2022-07-05T07:07:22;21.60;99.90
19898;DHT22;10111;50.814;4.572;2022-07-05T07:10:06;21.70;99.90
19898;DHT22;10111;50.814;4.572;2022-07-05T07:12:32;21.90;99.90
19898;DHT22;10111;50.814;4.572;2022-07-05T07:14:58;22.50;99.90
19898;DHT22;10111;50.814;4.572;2022-07-05T07:17:24;22.40;99.90
19898;DHT22;10111;50.814;4.572;2022-07-05T07:19:50;22.70;99.90
19898;DHT22;10111;50.814;4.572;2022-07-05T07:22:16;23.40;99.90
19898;DHT22;10111;50.814;4.572;2022-07-05T07:24:41;23.80;99.90
19898;DHT22;10111;50.814;4.572;2022-07-05T07:27:07;23.70;99.90
19898;DHT22;10111;50.814;4.572;2022-07-05T07:29:38;23.50;99.90
19898;DHT22;10111;50.814;4.572;2022-07-05T07:32:05;23.80;99.90
19898;DHT22;10111;50.814;4.572;2022-07-05T07:34:31;24.20;99.90
19898;DHT22;10111;50.814;4.572;2022-07-05T07:36:57;24.60;99.90
19898;DHT22;10111;50.814;4.572;2022-07-05T07:39:24;24.60;99.90
19898;DHT22;10111;50.814;4.572;2022-07-05T07:41:50;24.40;99.90
19898;DHT22;10111;50.814;4.572;2022-07-05T07:44:17;24.50;99.90
19898;DHT22;10111;50.814;4.572;2022-07-05T07:46:43;24.80;99.90
19898;DHT22;10111;50.814;4.572;2022-07-05T07:49:10;25.30;99.90
19898;DHT22;10111;50.814;4.572;2022-07-05T07:51:36;25.40;99.90
19898;DHT22;10111;50.814;4.572;2022-07-05T07:54:02;25.40;99.90
19898;DHT22;10111;50.814;4.572;2022-07-05T07:56:28;25.80;99.90
19898;DHT22;10111;50.814;4.572;2022-07-05T07:58:54;26.20;99.90
19898;DHT22;10111;50.814;4.572;2022-07-05T08:01:20;26.20;99.90
19898;DHT22;10111;50.814;4.572;2022-07-05T08:03:45;26.10;99.90
19898;DHT22;10111;50.814;4.572;2022-07-05T08:06:11;26.10;99.90
19898;DHT22;10111;50.814;4.572;2022-07-05T08:08:38;26.80;99.90
19898;DHT22;10111;50.814;4.572;2022-07-05T08:11:05;27.00;99.90
19898;DHT22;10111;50.814;4.572;2022-07-05T08:13:31;27.50;99.90
19898;DHT22;10111;50.814;4.572;2022-07-05T08:15:57;27.40;99.90
19898;DHT22;10111;50.814;4.572;2022-07-05T08:18:24;27.80;99.90
19898;DHT22;10111;50.814;4.572;2022-07-05T08:21:08;27.90;99.90
19898;DHT22;10111;50.814;4.572;2022-07-05T08:23:52;27.90;99.90
19898;DHT22;10111;50.814;4.572;2022-07-05T08:26:17;28.00;99.90
19898;DHT22;10111;50.814;4.572;2022-07-05T08:28:43;28.10;99.90
19898;DHT22;10111;50.814;4.572;2022-07-05T08:31:09;28.10;99.90
19898;DHT22;10111;50.814;4.572;2022-07-05T08:33:34;27.70;99.90
19898;DHT22;10111;50.814;4.572;2022-07-05T08:36:00;28.40;99.90
19898;DHT22;10111;50.814;4.572;2022-07-05T08:38:26;28.30;99.90
19898;DHT22;10111;50.814;4.572;2022-07-05T08:40:55;28.20;99.90
19898;DHT22;10111;50.814;4.572;2022-07-05T08:43:22;28.40;99.90
19898;DHT22;10111;50.814;4.572;2022-07-05T08:45:50;28.50;99.90
19898;DHT22;10111;50.814;4.572;2022-07-05T08:48:16;27.90;99.90
19898;DHT22;10111;50.814;4.572;2022-07-05T08:50:43;27.60;99.90
19898;DHT22;10111;50.814;4.572;2022-07-05T08:53:09;27.70;99.90
19898;DHT22;10111;50.814;4.572;2022-07-05T08:55:35;27.80;99.90
19898;DHT22;10111;50.814;4.572;2022-07-05T08:58:01;27.60;99.90
19898;DHT22;10111;50.814;4.572;2022-07-05T09:00:28;27.90;99.90
19898;DHT22;10111;50.814;4.572;2022-07-05T09:02:53;28.10;99.90
19898;DHT22;10111;50.814;4.572;2022-07-05T09:05:19;28.30;99.90
19898;DHT22;10111;50.814;4.572;2022-07-05T09:08:01;27.60;99.90
19898;DHT22;10111;50.814;4.572;2022-07-05T09:10:29;27.00;99.90
19898;DHT22;10111;50.814;4.572;2022-07-05T09:12:56;27.20;99.90
19898;DHT22;10111;50.814;4.572;2022-07-05T09:15:23;27.80;99.90
19898;DHT22;10111;50.814;4.572;2022-07-05T09:17:49;28.20;99.90
19898;DHT22;10111;50.814;4.572;2022-07-05T09:20:16;29.00;99.90
19898;DHT22;10111;50.814;4.572;2022-07-05T09:25:34;30.50;99.50
19898;DHT22;10111;50.814;4.572;2022-07-05T09:28:01;30.10;97.20
19898;DHT22;10111;50.814;4.572;2022-07-05T09:30:35;29.90;97.50
19898;DHT22;10111;50.814;4.572;2022-07-05T09:33:11;30.40;97.40
19898;DHT22;10111;50.814;4.572;2022-07-05T09:35:38;30.90;95.90
19898;DHT22;10111;50.814;4.572;2022-07-05T09:38:05;30.40;95.10
19898;DHT22;10111;50.814;4.572;2022-07-05T09:40:50;30.00;94.60
19898;DHT22;10111;50.814;4.572;2022-07-05T09:43:18;29.30;97.10
19898;DHT22;10111;50.814;4.572;2022-07-05T09:45:58;28.60;98.70
19898;DHT22;10111;50.814;4.572;2022-07-05T09:48:25;28.30;98.10
19898;DHT22;10111;50.814;4.572;2022-07-05T09:50:51;28.10;99.90
19898;DHT22;10111;50.814;4.572;2022-07-05T09:53:18;28.10;99.00
19898;DHT22;10111;50.814;4.572;2022-07-05T09:56:03;27.50;99.90
19898;DHT22;10111;50.814;4.572;2022-07-05T09:58:28;27.30;99.90
19898;DHT22;10111;50.814;4.572;2022-07-05T10:00:54;27.10;99.60
19898;DHT22;10111;50.814;4.572;2022-07-05T10:03:20;27.00;99.90
19898;DHT22;10111;50.814;4.572;2022-07-05T10:05:46;27.00;99.90
19898;DHT22;10111;50.814;4.572;2022-07-05T10:08:12;26.70;99.90
19898;DHT22;10111;50.814;4.572;2022-07-05T10:10:38;26.70;99.90
19898;DHT22;10111;50.814;4.572;2022-07-05T10:13:04;26.60;99.90
19898;DHT22;10111;50.814;4.572;2022-07-05T10:15:36;26.70;99.90
19898;DHT22;10111;50.814;4.572;2022-07-05T10:18:12;26.70;99.90
19898;DHT22;10111;50.814;4.572;2022-07-05T10:23:18;26.70;99.90
19898;DHT22;10111;50.814;4.572;2022-07-05T10:25:46;26.50;99.90
19898;DHT22;10111;50.814;4.572;2022-07-05T10:28:16;26.50;99.90
19898;DHT22;10111;50.814;4.572;2022-07-05T10:30:44;26.60;99.90
19898;DHT22;10111;50.814;4.572;2022-07-05T10:33:11;26.50;99.90
19898;DHT22;10111;50.814;4.572;2022-07-05T10:35:42;26.30;99.90
19898;DHT22;10111;50.814;4.572;2022-07-05T10:38:09;26.00;99.90
19898;DHT22;10111;50.814;4.572;2022-07-05T10:40:35;25.90;99.90
19898;DHT22;10111;50.814;4.572;2022-07-05T10:43:02;25.80;99.90
19898;DHT22;10111;50.814;4.572;2022-07-05T10:45:33;25.80;99.90
19898;DHT22;10111;50.814;4.572;2022-07-05T10:53:12;25.60;99.90
19898;DHT22;10111;50.814;4.572;2022-07-05T10:55:57;25.50;99.90
19898;DHT22;10111;50.814;4.572;2022-07-05T10:58:26;25.40;99.90
19898;DHT22;10111;50.814;4.572;2022-07-05T11:14:00;25.90;99.90
19898;DHT22;10111;50.814;4.572;2022-07-05T11:16:36;25.80;99.90
19898;DHT22;10111;50.814;4.572;2022-07-05T11:19:07;25.90;99.90
19898;DHT22;10111;50.814;4.572;2022-07-05T11:21:34;25.90;99.90
19898;DHT22;10111;50.814;4.572;2022-07-05T11:24:21;26.10;99.90
19898;DHT22;10111;50.814;4.572;2022-07-05T11:26:49;26.30;99.90
19898;DHT22;10111;50.814;4.572;2022-07-05T11:29:43;26.20;99.90
19898;DHT22;10111;50.814;4.572;2022-07-05T11:32:20;26.30;99.80
19898;DHT22;10111;50.814;4.572;2022-07-05T11:34:48;26.30;99.90
19898;DHT22;10111;50.814;4.572;2022-07-05T11:39:43;26.40;99.90
19898;DHT22;10111;50.814;4.572;2022-07-05T11:42:09;26.40;99.90
19898;DHT22;10111;50.814;4.572;2022-07-05T11:44:35;26.30;99.60
19898;DHT22;10111;50.814;4.572;2022-07-05T11:47:03;26.10;99.90
19898;DHT22;10111;50.814;4.572;2022-07-05T11:49:29;26.10;99.90
19898;DHT22;10111;50.814;4.572;2022-07-05T11:52:02;25.80;99.90
19898;DHT22;10111;50.814;4.572;2022-07-05T11:54:30;25.70;99.60
19898;DHT22;10111;50.814;4.572;2022-07-05T11:56:56;25.50;99.90
19898;DHT22;10111;50.814;4.572;2022-07-05T11:59:23;25.50;99.80
19898;DHT22;10111;50.814;4.572;2022-07-05T12:01:50;25.70;99.90
19898;DHT22;10111;50.814;4.572;2022-07-05T12:04:28;25.70;99.90
19898;DHT22;10111;50.814;4.572;2022-07-05T12:06:54;25.70;99.70
19898;DHT22;10111;50.814;4.572;2022-07-05T12:09:26;25.80;99.40
19898;DHT22;10111;50.814;4.572;2022-07-05T12:11:56;25.80;99.90
19898;DHT22;10111;50.814;4.572;2022-07-05T12:14:48;25.50;99.70
19898;DHT22;10111;50.814;4.572;2022-07-05T12:17:24;25.10;99.90
19898;DHT22;10111;50.814;4.572;2022-07-05T12:19:51;24.50;99.90
19898;DHT22;10111;50.814;4.572;2022-07-05T12:22:17;24.50;99.90
19898;DHT22;10111;50.814;4.572;2022-07-05T12:24:53;24.50;99.70
19898;DHT22;10111;50.814;4.572;2022-07-05T12:27:19;24.50;99.90
19898;DHT22;10111;50.814;4.572;2022-07-05T12:29:46;24.60;99.90
19898;DHT22;10111;50.814;4.572;2022-07-05T12:32:11;24.60;99.90
19898;DHT22;10111;50.814;4.572;2022-07-05T12:34:37;24.90;99.90
19898;DHT22;10111;50.814;4.572;2022-07-05T12:37:03;25.10;99.90
19898;DHT22;10111;50.814;4.572;2022-07-05T12:39:29;25.00;99.90
19898;DHT22;10111;50.814;4.572;2022-07-05T12:41:55;25.00;99.90
19898;DHT22;10111;50.814;4.572;2022-07-05T12:44:21;24.90;99.90
19898;DHT22;10111;50.814;4.572;2022-07-05T12:46:48;25.10;99.90
19898;DHT22;10111;50.814;4.572;2022-07-05T12:49:17;25.30;99.90
19898;DHT22;10111;50.814;4.572;2022-07-05T12:51:44;25.60;99.90
19898;DHT22;10111;50.814;4.572;2022-07-05T12:54:22;25.80;99.90
19898;DHT22;10111;50.814;4.572;2022-07-05T12:57:06;25.80;99.90
19898;DHT22;10111;50.814;4.572;2022-07-05T13:00:04;25.70;99.90
19898;DHT22;10111;50.814;4.572;2022-07-05T13:02:40;25.40;99.90
19898;DHT22;10111;50.814;4.572;2022-07-05T13:05:08;25.20;99.90
19898;DHT22;10111;50.814;4.572;2022-07-05T13:07:41;25.20;99.90
19898;DHT22;10111;50.814;4.572;2022-07-05T13:10:17;25.20;99.90
19898;DHT22;10111;50.814;4.572;2022-07-05T13:12:43;25.30;99.90
19898;DHT22;10111;50.814;4.572;2022-07-05T13:15:09;25.00;99.90
19898;DHT22;10111;50.814;4.572;2022-07-05T13:17:36;25.00;99.90
19898;DHT22;10111;50.814;4.572;2022-07-05T13:20:02;24.90;99.90
19898;DHT22;10111;50.814;4.572;2022-07-05T13:22:29;24.80;99.90
19898;DHT22;10111;50.814;4.572;2022-07-05T13:24:54;24.80;99.90
19898;DHT22;10111;50.814;4.572;2022-07-05T13:27:20;24.80;99.90
19898;DHT22;10111;50.814;4.572;2022-07-05T13:29:46;24.70;99.90
19898;DHT22;10111;50.814;4.572;2022-07-05T13:32:14;24.70;99.90
19898;DHT22;10111;50.814;4.572;2022-07-05T13:34:44;24.80;99.90
19898;DHT22;10111;50.814;4.572;2022-07-05T13:37:11;24.90;99.90
19898;DHT22;10111;50.814;4.572;2022-07-05T13:39:37;25.00;99.90
19898;DHT22;10111;50.814;4.572;2022-07-05T13:42:04;24.90;99.90
19898;DHT22;10111;50.814;4.572;2022-07-05T13:44:31;25.10;99.90
19898;DHT22;10111;50.814;4.572;2022-07-05T13:46:57;25.00;99.90
19898;DHT22;10111;50.814;4.572;2022-07-05T13:49:22;24.70;99.90
19898;DHT22;10111;50.814;4.572;2022-07-05T13:51:48;24.60;99.90
19898;DHT22;10111;50.814;4.572;2022-07-05T13:54:14;24.80;99.90
19898;DHT22;10111;50.814;4.572;2022-07-05T13:56:40;25.00;99.90
19898;DHT22;10111;50.814;4.572;2022-07-05T13:59:06;25.10;99.90
19898;DHT22;10111;50.814;4.572;2022-07-05T14:01:32;25.20;99.90
19898;DHT22;10111;50.814;4.572;2022-07-05T14:03:59;25.10;99.90
19898;DHT22;10111;50.814;4.572;2022-07-05T14:06:31;25.10;99.90
19898;DHT22;10111;50.814;4.572;2022-07-05T14:08:58;24.50;99.90
19898;DHT22;10111;50.814;4.572;2022-07-05T14:11:24;24.30;99.90
19898;DHT22;10111;50.814;4.572;2022-07-05T14:13:54;23.90;99.90
19898;DHT22;10111;50.814;4.572;2022-07-05T14:16:21;23.60;99.90
19898;DHT22;10111;50.814;4.572;2022-07-05T14:18:47;23.40;99.90
19898;DHT22;10111;50.814;4.572;2022-07-05T14:21:13;23.00;99.90
19898;DHT22;10111;50.814;4.572;2022-07-05T14:23:44;22.70;99.90
19898;DHT22;10111;50.814;4.572;2022-07-05T14:26:12;22.60;99.90
19898;DHT22;10111;50.814;4.572;2022-07-05T14:28:38;22.60;99.90
19898;DHT22;10111;50.814;4.572;2022-07-05T14:31:04;22.30;99.90
19898;DHT22;10111;50.814;4.572;2022-07-05T14:33:29;22.70;99.90
19898;DHT22;10111;50.814;4.572;2022-07-05T14:35:55;22.50;99.90
19898;DHT22;10111;50.814;4.572;2022-07-05T14:38:21;22.20;99.90
19898;DHT22;10111;50.814;4.572;2022-07-05T14:40:46;22.50;99.90
19898;DHT22;10111;50.814;4.572;2022-07-05T14:43:12;22.70;99.90
19898;DHT22;10111;50.814;4.572;2022-07-05T14:45:37;22.80;99.90
19898;DHT22;10111;50.814;4.572;2022-07-05T14:48:03;23.00;99.90
19898;DHT22;10111;50.814;4.572;2022-07-05T14:50:29;23.20;99.90
19898;DHT22;10111;50.814;4.572;2022-07-05T14:52:54;23.10;99.90
19898;DHT22;10111;50.814;4.572;2022-07-05T14:55:20;22.70;99.90
19898;DHT22;10111;50.814;4.572;2022-07-05T14:57:46;22.60;99.90
19898;DHT22;10111;50.814;4.572;2022-07-05T15:00:15;22.50;99.90
19898;DHT22;10111;50.814;4.572;2022-07-05T15:02:42;22.40;99.90
19898;DHT22;10111;50.814;4.572;2022-07-05T15:05:08;22.40;99.90
19898;DHT22;10111;50.814;4.572;2022-07-05T15:07:35;22.50;99.90
19898;DHT22;10111;50.814;4.572;2022-07-05T15:10:01;22.60;99.90
19898;DHT22;10111;50.814;4.572;2022-07-05T15:12:26;22.50;99.90
19898;DHT22;10111;50.814;4.572;2022-07-05T15:14:52;22.60;99.90
19898;DHT22;10111;50.814;4.572;2022-07-05T15:17:18;22.60;99.90
19898;DHT22;10111;50.814;4.572;2022-07-05T15:19:43;22.60;99.90
19898;DHT22;10111;50.814;4.572;2022-07-05T15:22:09;22.60;99.90
19898;DHT22;10111;50.814;4.572;2022-07-05T15:24:36;22.50;99.90
19898;DHT22;10111;50.814;4.572;2022-07-05T15:27:01;22.30;99.90
19898;DHT22;10111;50.814;4.572;2022-07-05T15:29:27;22.30;99.90
19898;DHT22;10111;50.814;4.572;2022-07-05T15:31:55;22.30;99.90
19898;DHT22;10111;50.814;4.572;2022-07-05T15:34:21;22.50;99.90
19898;DHT22;10111;50.814;4.572;2022-07-05T15:36:47;22.20;99.90
19898;DHT22;10111;50.814;4.572;2022-07-05T15:39:12;22.30;99.90
19898;DHT22;10111;50.814;4.572;2022-07-05T15:41:38;22.20;99.90
19898;DHT22;10111;50.814;4.572;2022-07-05T15:44:04;22.00;99.90
19898;DHT22;10111;50.814;4.572;2022-07-05T15:46:30;21.90;99.90
19898;DHT22;10111;50.814;4.572;2022-07-05T15:49:15;22.00;99.90
19898;DHT22;10111;50.814;4.572;2022-07-05T15:51:41;21.90;99.90
19898;DHT22;10111;50.814;4.572;2022-07-05T15:54:06;21.80;99.90
19898;DHT22;10111;50.814;4.572;2022-07-05T15:56:32;21.90;99.90
19898;DHT22;10111;50.814;4.572;2022-07-05T15:58:57;21.80;99.90
19898;DHT22;10111;50.814;4.572;2022-07-05T16:01:23;21.60;99.90